sensor_id;sensor_type;location;lat;lon;timestamp;temperature;humidity
67050;DHT22;53955;52.442;13.284;2023-02-15T00:00:25;7.00;70.80
67050;DHT22;53955;52.442;13.284;2023-02-15T00:02:52;6.80;71.00
67050;DHT22;53955;52.442;13.284;2023-02-15T00:05:18;6.80;70.70
67050;DHT22;53955;52.442;13.284;2023-02-15T00:07:45;6.70;70.60
67050;DHT22;53955;52.442;13.284;2023-02-15T00:10:11;6.60;71.40
67050;DHT22;53955;52.442;13.284;2023-02-15T00:12:39;6.60;71.50
67050;DHT22;53955;52.442;13.284;2023-02-15T00:15:07;6.80;71.30
67050;DHT22;53955;52.442;13.284;2023-02-15T00:17:34;6.70;70.80
67050;DHT22;53955;52.442;13.284;2023-02-15T00:20:01;6.70;71.10
67050;DHT22;53955;52.442;13.284;2023-02-15T00:22:27;6.70;70.30
67050;DHT22;53955;52.442;13.284;2023-02-15T00:24:54;6.60;71.00
67050;DHT22;53955;52.442;13.284;2023-02-15T00:27:21;6.80;70.90
67050;DHT22;53955;52.442;13.284;2023-02-15T00:29:47;6.80;70.50
67050;DHT22;53955;52.442;13.284;2023-02-15T00:32:15;6.60;71.20
67050;DHT22;53955;52.442;13.284;2023-02-15T00:34:42;6.60;71.50
67050;DHT22;53955;52.442;13.284;2023-02-15T00:37:08;6.70;71.30
67050;DHT22;53955;52.442;13.284;2023-02-15T00:39:35;6.70;71.30
67050;DHT22;53955;52.442;13.284;2023-02-15T00:42:01;6.80;70.50
67050;DHT22;53955;52.442;13.284;2023-02-15T00:44:28;6.70;71.10
67050;DHT22;53955;52.442;13.284;2023-02-15T00:46:55;6.70;71.20
67050;DHT22;53955;52.442;13.284;2023-02-15T00:49:23;6.70;71.20
67050;DHT22;53955;52.442;13.284;2023-02-15T00:51:49;6.60;71.00
67050;DHT22;53955;52.442;13.284;2023-02-15T00:54:16;6.60;71.10
67050;DHT22;53955;52.442;13.284;2023-02-15T00:56:42;6.50;71.60
67050;DHT22;53955;52.442;13.284;2023-02-15T00:59:09;6.40;71.80
67050;DHT22;53955;52.442;13.284;2023-02-15T01:01:36;6.50;71.80
67050;DHT22;53955;52.442;13.284;2023-02-15T01:04:02;6.40;71.60
67050;DHT22;53955;52.442;13.284;2023-02-15T01:06:30;6.30;71.20
67050;DHT22;53955;52.442;13.284;2023-02-15T01:08:57;6.30;71.60
67050;DHT22;53955;52.442;13.284;2023-02-15T01:11:23;6.50;70.50
67050;DHT22;53955;52.442;13.284;2023-02-15T01:13:51;6.20;71.90
67050;DHT22;53955;52.442;13.284;2023-02-15T01:16:18;6.30;71.60
67050;DHT22;53955;52.442;13.284;2023-02-15T01:18:45;6.30;71.50
67050;DHT22;53955;52.442;13.284;2023-02-15T01:21:14;6.20;72.10
67050;DHT22;53955;52.442;13.284;2023-02-15T01:23:42;6.30;71.20
67050;DHT22;53955;52.442;13.284;2023-02-15T01:26:09;6.20;71.60
67050;DHT22;53955;52.442;13.284;2023-02-15T01:28:36;6.20;71.70
67050;DHT22;53955;52.442;13.284;2023-02-15T01:31:07;6.20;71.20
67050;DHT22;53955;52.442;13.284;2023-02-15T01:33:34;6.20;71.90
67050;DHT22;53955;52.442;13.284;2023-02-15T01:36:02;6.20;71.20
67050;DHT22;53955;52.442;13.284;2023-02-15T01:38:29;6.30;71.60
67050;DHT22;53955;52.442;13.284;2023-02-15T01:40:57;6.10;71.40
67050;DHT22;53955;52.442;13.284;2023-02-15T01:43:47;6.00;71.50
67050;DHT22;53955;52.442;13.284;2023-02-15T01:46:16;6.10;71.40
67050;DHT22;53955;52.442;13.284;2023-02-15T01:48:46;6.10;71.30
67050;DHT22;53955;52.442;13.284;2023-02-15T01:51:14;6.10;71.40
67050;DHT22;53955;52.442;13.284;2023-02-15T01:53:47;6.10;71.30
67050;DHT22;53955;52.442;13.284;2023-02-15T01:56:19;6.00;72.00
67050;DHT22;53955;52.442;13.284;2023-02-15T01:58:49;5.80;72.30
67050;DHT22;53955;52.442;13.284;2023-02-15T02:01:15;6.10;71.80
67050;DHT22;53955;52.442;13.284;2023-02-15T02:03:49;5.90;71.60
67050;DHT22;53955;52.442;13.284;2023-02-15T02:06:19;5.90;71.50
67050;DHT22;53955;52.442;13.284;2023-02-15T02:08:47;6.00;71.10
67050;DHT22;53955;52.442;13.284;2023-02-15T02:11:14;5.90;71.20
67050;DHT22;53955;52.442;13.284;2023-02-15T02:13:44;5.90;71.20
67050;DHT22;53955;52.442;13.284;2023-02-15T02:16:13;6.00;71.70
67050;DHT22;53955;52.442;13.284;2023-02-15T02:18:49;6.00;71.90
67050;DHT22;53955;52.442;13.284;2023-02-15T02:27:37;6.10;72.50
67050;DHT22;53955;52.442;13.284;2023-02-15T02:30:47;6.00;72.30
67050;DHT22;53955;52.442;13.284;2023-02-15T02:36:18;5.80;72.00
67050;DHT22;53955;52.442;13.284;2023-02-15T02:38:54;5.80;72.50
67050;DHT22;53955;52.442;13.284;2023-02-15T02:41:26;5.70;72.80
67050;DHT22;53955;52.442;13.284;2023-02-15T02:44:02;5.80;72.90
67050;DHT22;53955;52.442;13.284;2023-02-15T02:46:33;5.90;73.20
67050;DHT22;53955;52.442;13.284;2023-02-15T02:49:02;5.80;72.40
67050;DHT22;53955;52.442;13.284;2023-02-15T02:51:29;6.00;72.50
67050;DHT22;53955;52.442;13.284;2023-02-15T02:54:00;5.90;71.70
67050;DHT22;53955;52.442;13.284;2023-02-15T02:56:29;5.90;72.10
67050;DHT22;53955;52.442;13.284;2023-02-15T02:59:00;5.70;71.50
67050;DHT22;53955;52.442;13.284;2023-02-15T03:01:32;5.70;72.10
67050;DHT22;53955;52.442;13.284;2023-02-15T03:04:04;5.70;72.70
67050;DHT22;53955;52.442;13.284;2023-02-15T03:06:38;5.80;72.00
67050;DHT22;53955;52.442;13.284;2023-02-15T03:09:10;5.60;73.00
67050;DHT22;53955;52.442;13.284;2023-02-15T03:11:41;5.50;72.30
67050;DHT22;53955;52.442;13.284;2023-02-15T03:14:08;5.60;72.80
67050;DHT22;53955;52.442;13.284;2023-02-15T03:16:36;5.90;72.90
67050;DHT22;53955;52.442;13.284;2023-02-15T03:19:07;5.50;72.50
67050;DHT22;53955;52.442;13.284;2023-02-15T03:21:38;5.50;72.20
67050;DHT22;53955;52.442;13.284;2023-02-15T03:24:10;5.80;72.80
67050;DHT22;53955;52.442;13.284;2023-02-15T03:26:40;5.70;72.40
67050;DHT22;53955;52.442;13.284;2023-02-15T03:29:09;5.60;72.40
67050;DHT22;53955;52.442;13.284;2023-02-15T03:31:39;5.40;72.50
67050;DHT22;53955;52.442;13.284;2023-02-15T03:34:10;5.40;72.20
67050;DHT22;53955;52.442;13.284;2023-02-15T03:36:43;5.40;72.80
67050;DHT22;53955;52.442;13.284;2023-02-15T03:39:17;5.50;72.20
67050;DHT22;53955;52.442;13.284;2023-02-15T03:41:52;5.50;72.30
67050;DHT22;53955;52.442;13.284;2023-02-15T03:44:25;5.60;72.00
67050;DHT22;53955;52.442;13.284;2023-02-15T03:46:58;5.50;71.30
67050;DHT22;53955;52.442;13.284;2023-02-15T03:49:30;5.50;70.80
67050;DHT22;53955;52.442;13.284;2023-02-15T03:52:01;5.40;71.50
67050;DHT22;53955;52.442;13.284;2023-02-15T03:54:31;5.40;71.50
67050;DHT22;53955;52.442;13.284;2023-02-15T03:57:16;5.30;71.20
67050;DHT22;53955;52.442;13.284;2023-02-15T04:00:02;5.50;71.10
67050;DHT22;53955;52.442;13.284;2023-02-15T04:02:59;5.30;70.90
67050;DHT22;53955;52.442;13.284;2023-02-15T04:05:29;5.40;71.10
67050;DHT22;53955;52.442;13.284;2023-02-15T04:07:55;5.40;70.60
67050;DHT22;53955;52.442;13.284;2023-02-15T04:10:22;5.20;71.20
67050;DHT22;53955;52.442;13.284;2023-02-15T04:13:06;5.40;71.00
67050;DHT22;53955;52.442;13.284;2023-02-15T04:15:32;5.30;71.50
67050;DHT22;53955;52.442;13.284;2023-02-15T04:18:17;5.30;70.40
67050;DHT22;53955;52.442;13.284;2023-02-15T04:20:45;5.30;70.50
67050;DHT22;53955;52.442;13.284;2023-02-15T04:23:30;5.50;69.40
67050;DHT22;53955;52.442;13.284;2023-02-15T04:26:14;5.40;69.90
67050;DHT22;53955;52.442;13.284;2023-02-15T04:28:41;5.10;70.20
67050;DHT22;53955;52.442;13.284;2023-02-15T04:31:08;5.10;70.50
67050;DHT22;53955;52.442;13.284;2023-02-15T04:33:34;5.10;70.40
67050;DHT22;53955;52.442;13.284;2023-02-15T04:36:03;6.00;86.50
67050;DHT22;53955;52.442;13.284;2023-02-15T04:38:30;5.60;70.10
67050;DHT22;53955;52.442;13.284;2023-02-15T04:40:57;5.40;69.10
67050;DHT22;53955;52.442;13.284;2023-02-15T04:43:23;5.20;69.00
67050;DHT22;53955;52.442;13.284;2023-02-15T04:45:50;5.10;70.00
67050;DHT22;53955;52.442;13.284;2023-02-15T04:48:17;5.00;70.50
67050;DHT22;53955;52.442;13.284;2023-02-15T04:50:44;4.80;69.90
67050;DHT22;53955;52.442;13.284;2023-02-15T04:53:12;4.40;70.50
67050;DHT22;53955;52.442;13.284;2023-02-15T04:55:38;4.70;70.90
67050;DHT22;53955;52.442;13.284;2023-02-15T04:58:05;4.70;71.60
67050;DHT22;53955;52.442;13.284;2023-02-15T05:00:32;4.50;71.00
67050;DHT22;53955;52.442;13.284;2023-02-15T05:02:58;4.70;70.10
67050;DHT22;53955;52.442;13.284;2023-02-15T05:05:25;4.70;70.90
67050;DHT22;53955;52.442;13.284;2023-02-15T05:07:51;4.70;70.70
67050;DHT22;53955;52.442;13.284;2023-02-15T05:10:20;4.70;71.00
67050;DHT22;53955;52.442;13.284;2023-02-15T05:12:46;4.50;70.80
67050;DHT22;53955;52.442;13.284;2023-02-15T05:15:13;4.90;71.90
67050;DHT22;53955;52.442;13.284;2023-02-15T05:17:40;5.00;72.20
67050;DHT22;53955;52.442;13.284;2023-02-15T05:20:07;5.10;71.60
67050;DHT22;53955;52.442;13.284;2023-02-15T05:22:34;5.00;70.50
67050;DHT22;53955;52.442;13.284;2023-02-15T05:25:00;5.20;69.80
67050;DHT22;53955;52.442;13.284;2023-02-15T05:27:46;5.10;70.80
67050;DHT22;53955;52.442;13.284;2023-02-15T05:30:30;4.90;69.70
67050;DHT22;53955;52.442;13.284;2023-02-15T05:32:56;4.80;70.50
67050;DHT22;53955;52.442;13.284;2023-02-15T05:35:23;4.70;70.20
67050;DHT22;53955;52.442;13.284;2023-02-15T05:37:49;4.60;69.90
67050;DHT22;53955;52.442;13.284;2023-02-15T05:40:16;4.50;70.70
67050;DHT22;53955;52.442;13.284;2023-02-15T05:42:43;4.40;70.80
67050;DHT22;53955;52.442;13.284;2023-02-15T05:45:10;4.60;71.20
67050;DHT22;53955;52.442;13.284;2023-02-15T05:47:37;4.60;71.10
67050;DHT22;53955;52.442;13.284;2023-02-15T05:50:05;4.60;70.40
67050;DHT22;53955;52.442;13.284;2023-02-15T05:52:31;4.60;70.80
67050;DHT22;53955;52.442;13.284;2023-02-15T05:54:58;4.60;70.50
67050;DHT22;53955;52.442;13.284;2023-02-15T05:57:25;4.60;70.80
67050;DHT22;53955;52.442;13.284;2023-02-15T05:59:52;4.60;71.20
67050;DHT22;53955;52.442;13.284;2023-02-15T06:02:20;4.60;71.20
67050;DHT22;53955;52.442;13.284;2023-02-15T06:04:47;4.60;71.70
67050;DHT22;53955;52.442;13.284;2023-02-15T06:07:13;4.40;71.80
67050;DHT22;53955;52.442;13.284;2023-02-15T06:09:40;4.50;71.40
67050;DHT22;53955;52.442;13.284;2023-02-15T06:12:06;4.60;71.70
67050;DHT22;53955;52.442;13.284;2023-02-15T06:14:33;4.70;70.80
67050;DHT22;53955;52.442;13.284;2023-02-15T06:17:00;4.60;71.30
67050;DHT22;53955;52.442;13.284;2023-02-15T06:19:27;4.60;69.80
67050;DHT22;53955;52.442;13.284;2023-02-15T06:21:54;4.60;70.20
67050;DHT22;53955;52.442;13.284;2023-02-15T06:24:21;4.50;71.30
67050;DHT22;53955;52.442;13.284;2023-02-15T06:26:47;4.30;71.30
67050;DHT22;53955;52.442;13.284;2023-02-15T06:29:14;4.20;71.80
67050;DHT22;53955;52.442;13.284;2023-02-15T06:31:40;4.40;71.60
67050;DHT22;53955;52.442;13.284;2023-02-15T06:34:07;4.50;70.60
67050;DHT22;53955;52.442;13.284;2023-02-15T06:36:35;4.50;70.20
67050;DHT22;53955;52.442;13.284;2023-02-15T06:39:02;4.40;70.90
67050;DHT22;53955;52.442;13.284;2023-02-15T06:41:29;4.50;70.70
67050;DHT22;53955;52.442;13.284;2023-02-15T06:43:55;4.50;69.60
67050;DHT22;53955;52.442;13.284;2023-02-15T06:46:23;4.40;70.50
67050;DHT22;53955;52.442;13.284;2023-02-15T06:48:49;4.30;70.40
67050;DHT22;53955;52.442;13.284;2023-02-15T06:51:16;4.20;70.70
67050;DHT22;53955;52.442;13.284;2023-02-15T06:53:44;4.50;70.00
67050;DHT22;53955;52.442;13.284;2023-02-15T06:56:11;4.20;70.80
67050;DHT22;53955;52.442;13.284;2023-02-15T06:58:38;4.20;70.00
67050;DHT22;53955;52.442;13.284;2023-02-15T07:01:05;4.20;70.00
67050;DHT22;53955;52.442;13.284;2023-02-15T07:03:32;4.30;70.20
67050;DHT22;53955;52.442;13.284;2023-02-15T07:05:59;4.10;70.20
67050;DHT22;53955;52.442;13.284;2023-02-15T07:08:26;4.10;70.20
67050;DHT22;53955;52.442;13.284;2023-02-15T07:10:54;4.10;71.00
67050;DHT22;53955;52.442;13.284;2023-02-15T07:13:41;4.00;70.40
67050;DHT22;53955;52.442;13.284;2023-02-15T07:16:08;3.80;71.20
67050;DHT22;53955;52.442;13.284;2023-02-15T07:18:34;3.80;71.40
67050;DHT22;53955;52.442;13.284;2023-02-15T07:21:01;3.90;71.00
67050;DHT22;53955;52.442;13.284;2023-02-15T07:23:28;4.10;71.10
67050;DHT22;53955;52.442;13.284;2023-02-15T07:25:57;4.10;71.00
67050;DHT22;53955;52.442;13.284;2023-02-15T07:28:24;4.00;70.20
67050;DHT22;53955;52.442;13.284;2023-02-15T07:30:50;4.00;70.70
67050;DHT22;53955;52.442;13.284;2023-02-15T07:33:17;4.10;71.50
67050;DHT22;53955;52.442;13.284;2023-02-15T07:35:49;4.20;70.50
67050;DHT22;53955;52.442;13.284;2023-02-15T07:38:16;4.20;70.20
67050;DHT22;53955;52.442;13.284;2023-02-15T07:40:44;4.30;70.10
67050;DHT22;53955;52.442;13.284;2023-02-15T07:43:13;4.20;68.80
67050;DHT22;53955;52.442;13.284;2023-02-15T07:45:39;4.00;70.10
67050;DHT22;53955;52.442;13.284;2023-02-15T07:48:06;4.20;71.00
67050;DHT22;53955;52.442;13.284;2023-02-15T07:50:33;4.30;69.20
67050;DHT22;53955;52.442;13.284;2023-02-15T07:53:01;4.20;70.60
67050;DHT22;53955;52.442;13.284;2023-02-15T07:55:28;4.30;70.50
67050;DHT22;53955;52.442;13.284;2023-02-15T07:57:55;4.40;69.50
67050;DHT22;53955;52.442;13.284;2023-02-15T08:00:23;4.50;69.60
67050;DHT22;53955;52.442;13.284;2023-02-15T08:02:52;4.50;68.70
67050;DHT22;53955;52.442;13.284;2023-02-15T08:05:38;4.60;69.00
67050;DHT22;53955;52.442;13.284;2023-02-15T08:08:06;4.50;68.30
67050;DHT22;53955;52.442;13.284;2023-02-15T08:10:33;4.50;68.60
67050;DHT22;53955;52.442;13.284;2023-02-15T08:13:17;4.40;68.20
67050;DHT22;53955;52.442;13.284;2023-02-15T08:15:49;4.30;69.10
67050;DHT22;53955;52.442;13.284;2023-02-15T08:18:15;4.40;68.40
67050;DHT22;53955;52.442;13.284;2023-02-15T08:20:42;4.70;68.50
67050;DHT22;53955;52.442;13.284;2023-02-15T08:23:09;4.80;67.60
67050;DHT22;53955;52.442;13.284;2023-02-15T08:25:35;4.80;68.60
67050;DHT22;53955;52.442;13.284;2023-02-15T08:28:02;4.90;69.20
67050;DHT22;53955;52.442;13.284;2023-02-15T08:30:29;4.70;68.30
67050;DHT22;53955;52.442;13.284;2023-02-15T08:32:56;4.70;69.30
67050;DHT22;53955;52.442;13.284;2023-02-15T08:35:26;4.60;69.60
67050;DHT22;53955;52.442;13.284;2023-02-15T08:37:53;4.30;70.80
67050;DHT22;53955;52.442;13.284;2023-02-15T08:40:20;4.60;71.00
67050;DHT22;53955;52.442;13.284;2023-02-15T08:42:47;4.40;70.80
67050;DHT22;53955;52.442;13.284;2023-02-15T08:45:14;4.60;70.50
67050;DHT22;53955;52.442;13.284;2023-02-15T08:47:40;4.70;69.90
67050;DHT22;53955;52.442;13.284;2023-02-15T08:50:09;4.50;69.90
67050;DHT22;53955;52.442;13.284;2023-02-15T08:52:35;4.60;70.80
67050;DHT22;53955;52.442;13.284;2023-02-15T08:55:02;4.60;70.90
67050;DHT22;53955;52.442;13.284;2023-02-15T08:57:29;4.60;70.40
67050;DHT22;53955;52.442;13.284;2023-02-15T08:59:55;4.60;71.20
67050;DHT22;53955;52.442;13.284;2023-02-15T09:02:22;4.30;71.60
67050;DHT22;53955;52.442;13.284;2023-02-15T09:04:48;4.60;71.80
67050;DHT22;53955;52.442;13.284;2023-02-15T09:07:18;4.80;71.40
67050;DHT22;53955;52.442;13.284;2023-02-15T09:09:45;4.90;70.10
67050;DHT22;53955;52.442;13.284;2023-02-15T09:12:12;4.90;69.70
67050;DHT22;53955;52.442;13.284;2023-02-15T09:14:39;5.10;70.40
67050;DHT22;53955;52.442;13.284;2023-02-15T09:17:05;5.20;69.50
67050;DHT22;53955;52.442;13.284;2023-02-15T09:19:32;5.20;69.80
67050;DHT22;53955;52.442;13.284;2023-02-15T09:21:58;5.40;69.30
67050;DHT22;53955;52.442;13.284;2023-02-15T09:24:27;5.40;69.70
67050;DHT22;53955;52.442;13.284;2023-02-15T09:26:53;5.30;69.50
67050;DHT22;53955;52.442;13.284;2023-02-15T09:29:20;5.60;69.50
67050;DHT22;53955;52.442;13.284;2023-02-15T09:31:49;5.60;68.20
67050;DHT22;53955;52.442;13.284;2023-02-15T09:34:17;5.60;69.00
67050;DHT22;53955;52.442;13.284;2023-02-15T09:36:45;5.70;68.30
67050;DHT22;53955;52.442;13.284;2023-02-15T09:39:14;5.70;69.00
67050;DHT22;53955;52.442;13.284;2023-02-15T09:41:56;5.40;69.30
67050;DHT22;53955;52.442;13.284;2023-02-15T09:44:33;5.60;68.60
67050;DHT22;53955;52.442;13.284;2023-02-15T09:47:22;5.40;70.10
67050;DHT22;53955;52.442;13.284;2023-02-15T09:49:56;5.80;69.20
67050;DHT22;53955;52.442;13.284;2023-02-15T09:52:34;5.70;68.20
67050;DHT22;53955;52.442;13.284;2023-02-15T09:55:20;5.80;67.60
67050;DHT22;53955;52.442;13.284;2023-02-15T09:57:54;5.70;69.00
67050;DHT22;53955;52.442;13.284;2023-02-15T10:00:30;5.80;68.20
67050;DHT22;53955;52.442;13.284;2023-02-15T10:03:10;5.80;69.00
67050;DHT22;53955;52.442;13.284;2023-02-15T10:05:47;5.80;68.80
67050;DHT22;53955;52.442;13.284;2023-02-15T10:08:37;6.20;69.10
67050;DHT22;53955;52.442;13.284;2023-02-15T10:11:13;6.20;68.10
67050;DHT22;53955;52.442;13.284;2023-02-15T10:14:10;6.10;68.10
67050;DHT22;53955;52.442;13.284;2023-02-15T10:16:47;6.00;68.20
67050;DHT22;53955;52.442;13.284;2023-02-15T10:19:23;6.10;68.90
67050;DHT22;53955;52.442;13.284;2023-02-15T10:21:59;6.10;68.70
67050;DHT22;53955;52.442;13.284;2023-02-15T10:24:43;6.30;68.80
67050;DHT22;53955;52.442;13.284;2023-02-15T10:27:17;6.10;68.60
67050;DHT22;53955;52.442;13.284;2023-02-15T10:29:52;6.20;68.90
67050;DHT22;53955;52.442;13.284;2023-02-15T10:32:22;6.20;68.40
67050;DHT22;53955;52.442;13.284;2023-02-15T10:34:51;6.20;69.20
67050;DHT22;53955;52.442;13.284;2023-02-15T10:37:35;6.50;68.70
67050;DHT22;53955;52.442;13.284;2023-02-15T10:40:11;6.60;68.50
67050;DHT22;53955;52.442;13.284;2023-02-15T10:42:50;6.90;67.60
67050;DHT22;53955;52.442;13.284;2023-02-15T10:45:28;7.00;67.00
67050;DHT22;53955;52.442;13.284;2023-02-15T10:51:02;7.30;66.20
67050;DHT22;53955;52.442;13.284;2023-02-15T10:53:45;7.20;66.10
67050;DHT22;53955;52.442;13.284;2023-02-15T10:56:20;7.30;66.10
67050;DHT22;53955;52.442;13.284;2023-02-15T10:59:04;7.40;66.10
67050;DHT22;53955;52.442;13.284;2023-02-15T11:01:40;7.20;66.60
67050;DHT22;53955;52.442;13.284;2023-02-15T11:04:27;7.30;66.10
67050;DHT22;53955;52.442;13.284;2023-02-15T11:06:58;7.20;66.20
67050;DHT22;53955;52.442;13.284;2023-02-15T11:09:32;7.40;66.40
67050;DHT22;53955;52.442;13.284;2023-02-15T11:12:00;7.40;65.90
67050;DHT22;53955;52.442;13.284;2023-02-15T11:14:34;7.40;65.40
67050;DHT22;53955;52.442;13.284;2023-02-15T11:17:09;7.50;65.60
67050;DHT22;53955;52.442;13.284;2023-02-15T11:19:39;7.40;65.70
67050;DHT22;53955;52.442;13.284;2023-02-15T11:22:10;7.50;66.20
67050;DHT22;53955;52.442;13.284;2023-02-15T11:24:41;7.60;66.80
67050;DHT22;53955;52.442;13.284;2023-02-15T11:27:17;7.80;64.60
67050;DHT22;53955;52.442;13.284;2023-02-15T11:29:52;7.60;66.70
67050;DHT22;53955;52.442;13.284;2023-02-15T11:32:22;7.80;66.40
67050;DHT22;53955;52.442;13.284;2023-02-15T11:34:52;7.90;65.30
67050;DHT22;53955;52.442;13.284;2023-02-15T11:37:24;8.00;66.20
67050;DHT22;53955;52.442;13.284;2023-02-15T11:39:54;8.00;66.10
67050;DHT22;53955;52.442;13.284;2023-02-15T11:42:23;8.10;66.20
67050;DHT22;53955;52.442;13.284;2023-02-15T11:44:57;8.20;65.70
67050;DHT22;53955;52.442;13.284;2023-02-15T11:47:26;8.30;66.50
67050;DHT22;53955;52.442;13.284;2023-02-15T11:49:54;8.40;66.30
67050;DHT22;53955;52.442;13.284;2023-02-15T11:52:20;8.50;65.40
67050;DHT22;53955;52.442;13.284;2023-02-15T11:54:49;8.70;64.50
67050;DHT22;53955;52.442;13.284;2023-02-15T11:57:22;8.90;65.80
67050;DHT22;53955;52.442;13.284;2023-02-15T11:59:49;8.90;65.20
67050;DHT22;53955;52.442;13.284;2023-02-15T12:02:18;8.90;65.10
67050;DHT22;53955;52.442;13.284;2023-02-15T12:04:48;9.20;64.90
67050;DHT22;53955;52.442;13.284;2023-02-15T12:07:17;9.10;64.10
67050;DHT22;53955;52.442;13.284;2023-02-15T12:09:48;9.10;64.00
67050;DHT22;53955;52.442;13.284;2023-02-15T12:12:22;9.00;64.70
67050;DHT22;53955;52.442;13.284;2023-02-15T12:14:49;9.10;64.20
67050;DHT22;53955;52.442;13.284;2023-02-15T12:17:17;9.20;64.60
67050;DHT22;53955;52.442;13.284;2023-02-15T12:19:44;9.30;63.90
67050;DHT22;53955;52.442;13.284;2023-02-15T12:22:21;9.50;63.80
67050;DHT22;53955;52.442;13.284;2023-02-15T12:24:50;9.60;64.20
67050;DHT22;53955;52.442;13.284;2023-02-15T12:27:20;9.70;62.80
67050;DHT22;53955;52.442;13.284;2023-02-15T12:29:50;9.80;62.20
67050;DHT22;53955;52.442;13.284;2023-02-15T12:32:19;9.90;62.50
67050;DHT22;53955;52.442;13.284;2023-02-15T12:34:48;9.90;62.70
67050;DHT22;53955;52.442;13.284;2023-02-15T12:37:17;10.00;62.20
67050;DHT22;53955;52.442;13.284;2023-02-15T12:39:54;10.00;62.50
67050;DHT22;53955;52.442;13.284;2023-02-15T12:42:21;10.00;62.50
67050;DHT22;53955;52.442;13.284;2023-02-15T12:44:58;10.10;62.40
67050;DHT22;53955;52.442;13.284;2023-02-15T12:47:25;10.10;62.90
67050;DHT22;53955;52.442;13.284;2023-02-15T12:50:12;10.10;62.80
67050;DHT22;53955;52.442;13.284;2023-02-15T12:52:44;10.30;62.30
67050;DHT22;53955;52.442;13.284;2023-02-15T12:55:19;10.30;62.10
67050;DHT22;53955;52.442;13.284;2023-02-15T12:57:47;10.30;61.90
67050;DHT22;53955;52.442;13.284;2023-02-15T13:00:27;10.50;61.90
67050;DHT22;53955;52.442;13.284;2023-02-15T13:02:55;10.60;62.00
67050;DHT22;53955;52.442;13.284;2023-02-15T13:05:26;10.70;61.90
67050;DHT22;53955;52.442;13.284;2023-02-15T13:07:57;10.60;61.80
67050;DHT22;53955;52.442;13.284;2023-02-15T13:10:28;10.70;61.90
67050;DHT22;53955;52.442;13.284;2023-02-15T13:12:55;10.80;62.00
67050;DHT22;53955;52.442;13.284;2023-02-15T13:15:26;10.80;61.70
67050;DHT22;53955;52.442;13.284;2023-02-15T13:17:55;11.00;61.50
67050;DHT22;53955;52.442;13.284;2023-02-15T13:20:22;10.90;61.10
67050;DHT22;53955;52.442;13.284;2023-02-15T13:22:51;10.90;60.90
67050;DHT22;53955;52.442;13.284;2023-02-15T13:25:20;10.90;61.60
67050;DHT22;53955;52.442;13.284;2023-02-15T13:27:52;10.90;61.60
67050;DHT22;53955;52.442;13.284;2023-02-15T13:30:24;11.10;61.20
67050;DHT22;53955;52.442;13.284;2023-02-15T13:32:54;10.90;61.60
67050;DHT22;53955;52.442;13.284;2023-02-15T13:35:23;11.00;61.00
67050;DHT22;53955;52.442;13.284;2023-02-15T13:38:11;11.10;61.30
67050;DHT22;53955;52.442;13.284;2023-02-15T13:40:46;11.20;61.10
67050;DHT22;53955;52.442;13.284;2023-02-15T13:43:28;11.30;61.20
67050;DHT22;53955;52.442;13.284;2023-02-15T13:46:09;11.50;60.90
67050;DHT22;53955;52.442;13.284;2023-02-15T13:48:46;11.70;60.90
67050;DHT22;53955;52.442;13.284;2023-02-15T13:51:17;11.80;60.00
67050;DHT22;53955;52.442;13.284;2023-02-15T13:53:53;11.90;60.30
67050;DHT22;53955;52.442;13.284;2023-02-15T13:56:26;11.80;59.30
67050;DHT22;53955;52.442;13.284;2023-02-15T13:58:58;11.90;59.80
67050;DHT22;53955;52.442;13.284;2023-02-15T14:01:36;11.90;60.20
67050;DHT22;53955;52.442;13.284;2023-02-15T14:04:23;12.10;59.20
67050;DHT22;53955;52.442;13.284;2023-02-15T14:07:21;12.10;58.90
67050;DHT22;53955;52.442;13.284;2023-02-15T14:09:59;12.20;58.80
67050;DHT22;53955;52.442;13.284;2023-02-15T14:12:35;12.20;58.50
67050;DHT22;53955;52.442;13.284;2023-02-15T14:15:18;12.30;59.00
67050;DHT22;53955;52.442;13.284;2023-02-15T14:17:53;12.30;58.90
67050;DHT22;53955;52.442;13.284;2023-02-15T14:20:25;12.40;59.40
67050;DHT22;53955;52.442;13.284;2023-02-15T14:23:02;12.40;59.10
67050;DHT22;53955;52.442;13.284;2023-02-15T14:25:35;12.40;58.30
67050;DHT22;53955;52.442;13.284;2023-02-15T14:28:09;12.40;57.90
67050;DHT22;53955;52.442;13.284;2023-02-15T14:30:39;12.40;56.70
67050;DHT22;53955;52.442;13.284;2023-02-15T14:33:29;12.40;56.40
67050;DHT22;53955;52.442;13.284;2023-02-15T14:35:58;12.50;57.20
67050;DHT22;53955;52.442;13.284;2023-02-15T14:38:39;12.50;56.30
67050;DHT22;53955;52.442;13.284;2023-02-15T14:41:13;12.70;56.60
67050;DHT22;53955;52.442;13.284;2023-02-15T14:43:47;12.60;57.40
67050;DHT22;53955;52.442;13.284;2023-02-15T14:46:23;12.60;57.30
67050;DHT22;53955;52.442;13.284;2023-02-15T14:48:53;12.50;57.00
67050;DHT22;53955;52.442;13.284;2023-02-15T14:51:58;12.50;57.20
67050;DHT22;53955;52.442;13.284;2023-02-15T14:54:52;12.50;56.70
67050;DHT22;53955;52.442;13.284;2023-02-15T14:57:25;12.40;56.70
67050;DHT22;53955;52.442;13.284;2023-02-15T14:59:55;12.40;57.60
67050;DHT22;53955;52.442;13.284;2023-02-15T15:02:29;12.40;57.10
67050;DHT22;53955;52.442;13.284;2023-02-15T15:05:02;12.30;56.90
67050;DHT22;53955;52.442;13.284;2023-02-15T15:07:38;12.40;56.90
67050;DHT22;53955;52.442;13.284;2023-02-15T15:10:35;12.30;56.80
67050;DHT22;53955;52.442;13.284;2023-02-15T15:13:36;12.30;56.40
67050;DHT22;53955;52.442;13.284;2023-02-15T15:16:29;12.40;56.00
67050;DHT22;53955;52.442;13.284;2023-02-15T15:18:58;12.30;56.60
67050;DHT22;53955;52.442;13.284;2023-02-15T15:21:56;12.30;57.30
67050;DHT22;53955;52.442;13.284;2023-02-15T15:24:53;12.30;55.40
67050;DHT22;53955;52.442;13.284;2023-02-15T15:27:40;12.30;56.10
67050;DHT22;53955;52.442;13.284;2023-02-15T15:30:46;12.40;56.30
67050;DHT22;53955;52.442;13.284;2023-02-15T15:33:25;12.40;56.00
67050;DHT22;53955;52.442;13.284;2023-02-15T15:36:17;12.40;56.00
67050;DHT22;53955;52.442;13.284;2023-02-15T15:38:58;12.40;57.30
67050;DHT22;53955;52.442;13.284;2023-02-15T15:41:40;12.30;56.50
67050;DHT22;53955;52.442;13.284;2023-02-15T15:44:33;12.30;57.20
67050;DHT22;53955;52.442;13.284;2023-02-15T15:47:22;12.20;57.10
67050;DHT22;53955;52.442;13.284;2023-02-15T15:49:55;12.20;57.10
67050;DHT22;53955;52.442;13.284;2023-02-15T15:52:23;12.20;57.80
67050;DHT22;53955;52.442;13.284;2023-02-15T15:54:54;12.10;57.40
67050;DHT22;53955;52.442;13.284;2023-02-15T15:57:27;12.00;58.40
67050;DHT22;53955;52.442;13.284;2023-02-15T15:59:54;11.90;57.80
67050;DHT22;53955;52.442;13.284;2023-02-15T16:02:21;12.00;58.70
67050;DHT22;53955;52.442;13.284;2023-02-15T16:04:48;11.70;58.20
67050;DHT22;53955;52.442;13.284;2023-02-15T16:07:26;11.70;58.20